sensor_id;sensor_type;location;lat;lon;timestamp;temperature;humidity
7700;DHT22;3892;47.794;19.126;2023-03-04T00:01:46;13.00;27.30
7700;DHT22;3892;47.794;19.126;2023-03-04T00:04:13;13.00;27.30
7700;DHT22;3892;47.794;19.126;2023-03-04T00:06:40;13.00;27.30
7700;DHT22;3892;47.794;19.126;2023-03-04T00:09:07;13.00;27.20
7700;DHT22;3892;47.794;19.126;2023-03-04T00:11:35;12.90;27.00
7700;DHT22;3892;47.794;19.126;2023-03-04T00:14:02;12.90;27.10
7700;DHT22;3892;47.794;19.126;2023-03-04T00:16:30;12.90;27.30
7700;DHT22;3892;47.794;19.126;2023-03-04T00:18:57;12.90;27.30
7700;DHT22;3892;47.794;19.126;2023-03-04T00:21:24;12.90;27.30
7700;DHT22;3892;47.794;19.126;2023-03-04T00:23:51;12.90;27.30
7700;DHT22;3892;47.794;19.126;2023-03-04T00:26:18;12.90;27.30
7700;DHT22;3892;47.794;19.126;2023-03-04T00:28:46;12.90;27.30
7700;DHT22;3892;47.794;19.126;2023-03-04T00:31:13;12.80;27.20
7700;DHT22;3892;47.794;19.126;2023-03-04T00:33:41;12.80;27.30
7700;DHT22;3892;47.794;19.126;2023-03-04T00:36:09;12.80;27.30
7700;DHT22;3892;47.794;19.126;2023-03-04T00:38:36;12.80;27.20
7700;DHT22;3892;47.794;19.126;2023-03-04T00:41:04;12.70;27.10
7700;DHT22;3892;47.794;19.126;2023-03-04T00:43:31;12.70;27.20
7700;DHT22;3892;47.794;19.126;2023-03-04T00:45:58;12.70;27.30
7700;DHT22;3892;47.794;19.126;2023-03-04T00:48:25;12.60;27.20
7700;DHT22;3892;47.794;19.126;2023-03-04T00:50:53;12.60;27.00
7700;DHT22;3892;47.794;19.126;2023-03-04T00:53:20;12.60;26.90
7700;DHT22;3892;47.794;19.126;2023-03-04T00:55:48;12.60;26.80
7700;DHT22;3892;47.794;19.126;2023-03-04T00:58:16;12.60;26.80
7700;DHT22;3892;47.794;19.126;2023-03-04T01:00:43;12.60;26.90
7700;DHT22;3892;47.794;19.126;2023-03-04T01:03:10;12.50;26.80
7700;DHT22;3892;47.794;19.126;2023-03-04T01:05:37;12.50;26.80
7700;DHT22;3892;47.794;19.126;2023-03-04T01:08:05;12.50;26.80
7700;DHT22;3892;47.794;19.126;2023-03-04T01:10:33;12.50;26.70
7700;DHT22;3892;47.794;19.126;2023-03-04T01:13:00;12.50;26.70
7700;DHT22;3892;47.794;19.126;2023-03-04T01:15:27;12.50;26.60
7700;DHT22;3892;47.794;19.126;2023-03-04T01:17:54;12.50;26.50
7700;DHT22;3892;47.794;19.126;2023-03-04T01:20:22;12.50;26.40
7700;DHT22;3892;47.794;19.126;2023-03-04T01:22:49;12.40;26.30
7700;DHT22;3892;47.794;19.126;2023-03-04T01:25:17;12.50;26.40
7700;DHT22;3892;47.794;19.126;2023-03-04T01:27:44;12.40;26.50
7700;DHT22;3892;47.794;19.126;2023-03-04T01:30:12;12.40;26.60
7700;DHT22;3892;47.794;19.126;2023-03-04T01:32:39;12.40;26.70
7700;DHT22;3892;47.794;19.126;2023-03-04T01:35:06;12.40;26.70
7700;DHT22;3892;47.794;19.126;2023-03-04T01:37:33;12.30;26.70
7700;DHT22;3892;47.794;19.126;2023-03-04T01:40:00;12.30;26.70
7700;DHT22;3892;47.794;19.126;2023-03-04T01:42:31;12.40;26.60
7700;DHT22;3892;47.794;19.126;2023-03-04T01:45:00;12.30;26.50
7700;DHT22;3892;47.794;19.126;2023-03-04T01:47:29;12.30;26.50
7700;DHT22;3892;47.794;19.126;2023-03-04T01:49:57;12.30;26.30
7700;DHT22;3892;47.794;19.126;2023-03-04T01:52:27;12.20;26.30
7700;DHT22;3892;47.794;19.126;2023-03-04T01:54:54;12.20;26.30
7700;DHT22;3892;47.794;19.126;2023-03-04T01:57:24;12.20;26.20
7700;DHT22;3892;47.794;19.126;2023-03-04T02:00:21;12.20;26.10
7700;DHT22;3892;47.794;19.126;2023-03-04T02:02:51;12.10;26.00
7700;DHT22;3892;47.794;19.126;2023-03-04T02:05:19;12.00;26.10
7700;DHT22;3892;47.794;19.126;2023-03-04T02:07:47;11.90;26.00
7700;DHT22;3892;47.794;19.126;2023-03-04T02:10:14;11.90;26.10
7700;DHT22;3892;47.794;19.126;2023-03-04T02:12:42;11.90;26.10
7700;DHT22;3892;47.794;19.126;2023-03-04T02:15:10;11.90;26.10
7700;DHT22;3892;47.794;19.126;2023-03-04T02:17:38;11.90;26.20
7700;DHT22;3892;47.794;19.126;2023-03-04T02:20:14;11.90;26.20
7700;DHT22;3892;47.794;19.126;2023-03-04T02:22:50;11.90;26.20
7700;DHT22;3892;47.794;19.126;2023-03-04T02:25:23;11.80;26.10
7700;DHT22;3892;47.794;19.126;2023-03-04T02:27:55;11.80;26.10
7700;DHT22;3892;47.794;19.126;2023-03-04T02:30:23;11.80;26.20
7700;DHT22;3892;47.794;19.126;2023-03-04T02:32:51;11.80;26.30
7700;DHT22;3892;47.794;19.126;2023-03-04T02:35:19;11.80;26.40
7700;DHT22;3892;47.794;19.126;2023-03-04T02:37:47;11.80;26.30
7700;DHT22;3892;47.794;19.126;2023-03-04T02:40:16;11.80;26.30
7700;DHT22;3892;47.794;19.126;2023-03-04T02:42:44;11.80;26.30
7700;DHT22;3892;47.794;19.126;2023-03-04T02:45:37;11.80;26.30
7700;DHT22;3892;47.794;19.126;2023-03-04T02:48:07;11.70;26.00
7700;DHT22;3892;47.794;19.126;2023-03-04T02:50:38;11.70;26.10
7700;DHT22;3892;47.794;19.126;2023-03-04T02:53:06;11.60;26.10
7700;DHT22;3892;47.794;19.126;2023-03-04T02:55:33;11.60;26.10
7700;DHT22;3892;47.794;19.126;2023-03-04T02:58:00;11.60;26.20
7700;DHT22;3892;47.794;19.126;2023-03-04T03:00:28;11.50;26.10
7700;DHT22;3892;47.794;19.126;2023-03-04T03:02:56;11.40;26.00
7700;DHT22;3892;47.794;19.126;2023-03-04T03:05:25;11.40;26.10
7700;DHT22;3892;47.794;19.126;2023-03-04T03:07:54;11.30;26.10
7700;DHT22;3892;47.794;19.126;2023-03-04T03:10:22;11.30;26.10
7700;DHT22;3892;47.794;19.126;2023-03-04T03:12:49;11.30;26.10
7700;DHT22;3892;47.794;19.126;2023-03-04T03:15:17;11.20;26.10
7700;DHT22;3892;47.794;19.126;2023-03-04T03:17:44;11.20;26.20
7700;DHT22;3892;47.794;19.126;2023-03-04T03:20:15;11.20;26.10
7700;DHT22;3892;47.794;19.126;2023-03-04T03:22:43;11.20;26.10
7700;DHT22;3892;47.794;19.126;2023-03-04T03:25:12;11.20;26.10
7700;DHT22;3892;47.794;19.126;2023-03-04T03:27:40;11.10;26.10
7700;DHT22;3892;47.794;19.126;2023-03-04T03:30:09;11.10;26.10
7700;DHT22;3892;47.794;19.126;2023-03-04T03:32:36;11.10;26.10
7700;DHT22;3892;47.794;19.126;2023-03-04T03:35:04;11.10;26.00
7700;DHT22;3892;47.794;19.126;2023-03-04T03:37:33;11.10;26.00
7700;DHT22;3892;47.794;19.126;2023-03-04T03:40:00;11.10;25.90
7700;DHT22;3892;47.794;19.126;2023-03-04T03:42:27;11.10;25.90
7700;DHT22;3892;47.794;19.126;2023-03-04T03:44:54;11.10;25.90
7700;DHT22;3892;47.794;19.126;2023-03-04T03:47:21;11.00;26.00
7700;DHT22;3892;47.794;19.126;2023-03-04T03:49:48;11.00;25.90
7700;DHT22;3892;47.794;19.126;2023-03-04T03:52:15;11.00;25.90
7700;DHT22;3892;47.794;19.126;2023-03-04T03:54:44;11.00;26.40
7700;DHT22;3892;47.794;19.126;2023-03-04T03:57:11;11.00;26.10
7700;DHT22;3892;47.794;19.126;2023-03-04T03:59:38;11.00;26.00
7700;DHT22;3892;47.794;19.126;2023-03-04T04:02:05;11.00;26.00
7700;DHT22;3892;47.794;19.126;2023-03-04T04:04:32;10.90;25.90
7700;DHT22;3892;47.794;19.126;2023-03-04T04:06:59;10.90;25.90
7700;DHT22;3892;47.794;19.126;2023-03-04T04:09:26;10.90;25.90
7700;DHT22;3892;47.794;19.126;2023-03-04T04:11:55;10.90;25.90
7700;DHT22;3892;47.794;19.126;2023-03-04T04:14:22;10.70;25.90
7700;DHT22;3892;47.794;19.126;2023-03-04T04:16:49;10.70;26.00
7700;DHT22;3892;47.794;19.126;2023-03-04T04:19:17;10.70;26.20
7700;DHT22;3892;47.794;19.126;2023-03-04T04:21:45;10.70;26.30
7700;DHT22;3892;47.794;19.126;2023-03-04T04:24:12;10.70;26.30
7700;DHT22;3892;47.794;19.126;2023-03-04T04:26:39;10.80;26.40
7700;DHT22;3892;47.794;19.126;2023-03-04T04:29:08;10.80;26.40
7700;DHT22;3892;47.794;19.126;2023-03-04T04:31:35;10.80;26.50
7700;DHT22;3892;47.794;19.126;2023-03-04T04:34:02;10.80;26.40
7700;DHT22;3892;47.794;19.126;2023-03-04T04:36:29;10.80;26.40
7700;DHT22;3892;47.794;19.126;2023-03-04T04:38:56;10.80;26.40
7700;DHT22;3892;47.794;19.126;2023-03-04T04:41:26;10.80;26.50
7700;DHT22;3892;47.794;19.126;2023-03-04T04:43:54;10.70;26.40
7700;DHT22;3892;47.794;19.126;2023-03-04T04:46:23;10.70;26.40
7700;DHT22;3892;47.794;19.126;2023-03-04T04:48:50;10.70;26.40
7700;DHT22;3892;47.794;19.126;2023-03-04T04:51:17;10.60;26.40
7700;DHT22;3892;47.794;19.126;2023-03-04T04:53:44;10.60;26.40
7700;DHT22;3892;47.794;19.126;2023-03-04T04:56:13;10.50;26.40
7700;DHT22;3892;47.794;19.126;2023-03-04T04:58:41;10.40;26.50
7700;DHT22;3892;47.794;19.126;2023-03-04T05:01:08;10.40;26.70
7700;DHT22;3892;47.794;19.126;2023-03-04T05:03:37;10.40;26.90
7700;DHT22;3892;47.794;19.126;2023-03-04T05:06:06;10.20;26.80
7700;DHT22;3892;47.794;19.126;2023-03-04T05:08:33;9.90;27.60
7700;DHT22;3892;47.794;19.126;2023-03-04T05:11:01;9.70;27.80
7700;DHT22;3892;47.794;19.126;2023-03-04T05:13:28;9.30;28.10
7700;DHT22;3892;47.794;19.126;2023-03-04T05:15:56;9.30;28.40
7700;DHT22;3892;47.794;19.126;2023-03-04T05:18:24;9.10;28.60
7700;DHT22;3892;47.794;19.126;2023-03-04T05:20:54;9.20;28.80
7700;DHT22;3892;47.794;19.126;2023-03-04T05:23:22;9.30;28.80
7700;DHT22;3892;47.794;19.126;2023-03-04T05:25:50;9.50;28.70
7700;DHT22;3892;47.794;19.126;2023-03-04T05:28:17;9.60;28.60
7700;DHT22;3892;47.794;19.126;2023-03-04T05:30:45;9.70;28.60
7700;DHT22;3892;47.794;19.126;2023-03-04T05:33:13;9.70;28.60
7700;DHT22;3892;47.794;19.126;2023-03-04T05:35:42;9.80;28.60
7700;DHT22;3892;47.794;19.126;2023-03-04T05:38:13;9.80;28.60
7700;DHT22;3892;47.794;19.126;2023-03-04T05:40:41;9.90;28.60
7700;DHT22;3892;47.794;19.126;2023-03-04T05:43:08;9.80;28.60
7700;DHT22;3892;47.794;19.126;2023-03-04T05:45:36;9.70;28.60
7700;DHT22;3892;47.794;19.126;2023-03-04T05:48:04;9.50;28.80
7700;DHT22;3892;47.794;19.126;2023-03-04T05:50:31;9.40;29.10
7700;DHT22;3892;47.794;19.126;2023-03-04T05:53:00;9.40;29.20
7700;DHT22;3892;47.794;19.126;2023-03-04T05:55:29;9.40;29.30
7700;DHT22;3892;47.794;19.126;2023-03-04T05:57:56;9.40;29.20
7700;DHT22;3892;47.794;19.126;2023-03-04T06:00:23;9.50;29.30
7700;DHT22;3892;47.794;19.126;2023-03-04T06:02:50;9.40;29.30
7700;DHT22;3892;47.794;19.126;2023-03-04T06:05:18;9.30;29.30
7700;DHT22;3892;47.794;19.126;2023-03-04T06:07:45;9.30;29.40
7700;DHT22;3892;47.794;19.126;2023-03-04T06:10:14;9.20;29.40
7700;DHT22;3892;47.794;19.126;2023-03-04T06:12:43;9.30;29.50
7700;DHT22;3892;47.794;19.126;2023-03-04T06:15:10;9.30;29.50
7700;DHT22;3892;47.794;19.126;2023-03-04T06:17:38;9.40;29.60
7700;DHT22;3892;47.794;19.126;2023-03-04T06:20:06;9.50;29.60
7700;DHT22;3892;47.794;19.126;2023-03-04T06:22:33;9.50;29.50
7700;DHT22;3892;47.794;19.126;2023-03-04T06:25:01;9.50;29.40
7700;DHT22;3892;47.794;19.126;2023-03-04T06:27:28;9.60;29.60
7700;DHT22;3892;47.794;19.126;2023-03-04T06:29:56;9.70;29.50
7700;DHT22;3892;47.794;19.126;2023-03-04T06:32:23;9.80;29.50
7700;DHT22;3892;47.794;19.126;2023-03-04T06:34:50;9.90;29.60
7700;DHT22;3892;47.794;19.126;2023-03-04T06:37:18;9.80;29.50
7700;DHT22;3892;47.794;19.126;2023-03-04T06:39:45;9.80;29.60
7700;DHT22;3892;47.794;19.126;2023-03-04T06:42:12;9.80;29.60
7700;DHT22;3892;47.794;19.126;2023-03-04T06:44:39;9.70;29.60
7700;DHT22;3892;47.794;19.126;2023-03-04T06:47:07;9.50;30.10
7700;DHT22;3892;47.794;19.126;2023-03-04T06:49:34;9.50;30.00
7700;DHT22;3892;47.794;19.126;2023-03-04T06:52:01;9.40;30.00
7700;DHT22;3892;47.794;19.126;2023-03-04T06:54:29;9.40;30.10
7700;DHT22;3892;47.794;19.126;2023-03-04T06:56:56;9.30;30.00
7700;DHT22;3892;47.794;19.126;2023-03-04T06:59:23;9.50;30.10
7700;DHT22;3892;47.794;19.126;2023-03-04T07:01:50;9.40;30.00
7700;DHT22;3892;47.794;19.126;2023-03-04T07:04:18;9.50;30.00
7700;DHT22;3892;47.794;19.126;2023-03-04T07:06:48;9.60;30.00
7700;DHT22;3892;47.794;19.126;2023-03-04T07:09:16;9.60;29.90
7700;DHT22;3892;47.794;19.126;2023-03-04T07:11:43;9.60;29.90
7700;DHT22;3892;47.794;19.126;2023-03-04T07:14:10;9.70;30.00
7700;DHT22;3892;47.794;19.126;2023-03-04T07:16:37;9.80;30.00
7700;DHT22;3892;47.794;19.126;2023-03-04T07:19:05;9.90;29.90
7700;DHT22;3892;47.794;19.126;2023-03-04T07:21:33;9.90;29.80
7700;DHT22;3892;47.794;19.126;2023-03-04T07:24:00;10.00;29.20
7700;DHT22;3892;47.794;19.126;2023-03-04T07:26:27;10.10;29.20
7700;DHT22;3892;47.794;19.126;2023-03-04T07:28:54;10.20;29.20
7700;DHT22;3892;47.794;19.126;2023-03-04T07:31:25;10.20;29.20
7700;DHT22;3892;47.794;19.126;2023-03-04T07:33:55;10.10;29.30
7700;DHT22;3892;47.794;19.126;2023-03-04T07:36:23;10.10;29.50
7700;DHT22;3892;47.794;19.126;2023-03-04T07:38:52;10.00;29.50
7700;DHT22;3892;47.794;19.126;2023-03-04T07:41:21;10.10;29.70
7700;DHT22;3892;47.794;19.126;2023-03-04T07:43:49;10.20;29.80
7700;DHT22;3892;47.794;19.126;2023-03-04T07:46:17;10.20;29.90
7700;DHT22;3892;47.794;19.126;2023-03-04T07:48:45;10.30;29.70
7700;DHT22;3892;47.794;19.126;2023-03-04T07:51:13;10.30;29.80
7700;DHT22;3892;47.794;19.126;2023-03-04T07:53:42;10.30;29.70
7700;DHT22;3892;47.794;19.126;2023-03-04T07:56:14;10.30;29.80
7700;DHT22;3892;47.794;19.126;2023-03-04T07:58:41;10.40;29.70
7700;DHT22;3892;47.794;19.126;2023-03-04T08:01:09;10.40;29.50
7700;DHT22;3892;47.794;19.126;2023-03-04T08:03:36;10.50;29.70
7700;DHT22;3892;47.794;19.126;2023-03-04T08:06:05;10.50;29.60
7700;DHT22;3892;47.794;19.126;2023-03-04T08:08:32;10.50;29.50
7700;DHT22;3892;47.794;19.126;2023-03-04T08:10:59;10.50;29.30
7700;DHT22;3892;47.794;19.126;2023-03-04T08:13:27;10.50;29.50
7700;DHT22;3892;47.794;19.126;2023-03-04T08:15:55;10.40;29.50
7700;DHT22;3892;47.794;19.126;2023-03-04T08:18:22;10.40;29.50
7700;DHT22;3892;47.794;19.126;2023-03-04T08:20:49;10.30;29.40
7700;DHT22;3892;47.794;19.126;2023-03-04T08:23:17;10.30;29.40
7700;DHT22;3892;47.794;19.126;2023-03-04T08:25:44;10.40;29.60
7700;DHT22;3892;47.794;19.126;2023-03-04T08:28:12;10.60;29.70
7700;DHT22;3892;47.794;19.126;2023-03-04T08:30:41;10.60;29.50
7700;DHT22;3892;47.794;19.126;2023-03-04T08:33:08;10.70;29.60
7700;DHT22;3892;47.794;19.126;2023-03-04T08:35:37;10.80;29.60
7700;DHT22;3892;47.794;19.126;2023-03-04T08:38:05;10.90;29.50
7700;DHT22;3892;47.794;19.126;2023-03-04T08:40:32;11.00;29.40
7700;DHT22;3892;47.794;19.126;2023-03-04T08:42:59;11.20;29.20
7700;DHT22;3892;47.794;19.126;2023-03-04T08:45:26;11.30;29.20
7700;DHT22;3892;47.794;19.126;2023-03-04T08:47:55;11.20;29.00
7700;DHT22;3892;47.794;19.126;2023-03-04T08:50:22;11.00;28.90
7700;DHT22;3892;47.794;19.126;2023-03-04T08:52:49;11.00;28.90
7700;DHT22;3892;47.794;19.126;2023-03-04T08:55:16;11.20;29.30
7700;DHT22;3892;47.794;19.126;2023-03-04T08:57:43;11.40;29.50
7700;DHT22;3892;47.794;19.126;2023-03-04T09:00:11;11.40;29.30
7700;DHT22;3892;47.794;19.126;2023-03-04T09:02:38;11.40;29.10
7700;DHT22;3892;47.794;19.126;2023-03-04T09:05:08;11.60;29.30
7700;DHT22;3892;47.794;19.126;2023-03-04T09:07:35;11.50;29.00
7700;DHT22;3892;47.794;19.126;2023-03-04T09:10:02;11.60;29.00
7700;DHT22;3892;47.794;19.126;2023-03-04T09:12:30;11.80;29.30
7700;DHT22;3892;47.794;19.126;2023-03-04T09:14:57;11.70;28.90
7700;DHT22;3892;47.794;19.126;2023-03-04T09:17:24;12.00;29.10
7700;DHT22;3892;47.794;19.126;2023-03-04T09:19:51;12.30;29.40
7700;DHT22;3892;47.794;19.126;2023-03-04T09:22:19;12.50;29.20
7700;DHT22;3892;47.794;19.126;2023-03-04T09:24:46;12.70;28.80
7700;DHT22;3892;47.794;19.126;2023-03-04T09:27:13;12.80;28.80
7700;DHT22;3892;47.794;19.126;2023-03-04T09:29:40;12.90;28.80
7700;DHT22;3892;47.794;19.126;2023-03-04T09:32:09;13.10;28.70
7700;DHT22;3892;47.794;19.126;2023-03-04T09:34:36;13.10;28.50
7700;DHT22;3892;47.794;19.126;2023-03-04T09:37:03;13.50;28.50
7700;DHT22;3892;47.794;19.126;2023-03-04T09:39:31;13.70;28.10
7700;DHT22;3892;47.794;19.126;2023-03-04T09:41:59;14.00;28.60
7700;DHT22;3892;47.794;19.126;2023-03-04T09:44:29;14.20;28.00
7700;DHT22;3892;47.794;19.126;2023-03-04T09:54:35;14.80;26.50
7700;DHT22;3892;47.794;19.126;2023-03-04T09:57:23;14.90;27.00
7700;DHT22;3892;47.794;19.126;2023-03-04T09:59:59;15.20;27.10
7700;DHT22;3892;47.794;19.126;2023-03-04T10:02:43;15.30;27.50
7700;DHT22;3892;47.794;19.126;2023-03-04T10:05:16;15.40;26.70
7700;DHT22;3892;47.794;19.126;2023-03-04T10:07:47;15.50;26.60
7700;DHT22;3892;47.794;19.126;2023-03-04T10:10:21;15.50;26.50
7700;DHT22;3892;47.794;19.126;2023-03-04T10:12:51;15.70;26.70
7700;DHT22;3892;47.794;19.126;2023-03-04T10:15:23;15.70;26.80
7700;DHT22;3892;47.794;19.126;2023-03-04T10:17:59;15.60;26.40
7700;DHT22;3892;47.794;19.126;2023-03-04T10:20:36;15.90;26.90
7700;DHT22;3892;47.794;19.126;2023-03-04T10:23:10;16.00;26.80
7700;DHT22;3892;47.794;19.126;2023-03-04T10:25:43;16.10;26.70
7700;DHT22;3892;47.794;19.126;2023-03-04T10:28:14;16.40;27.00
7700;DHT22;3892;47.794;19.126;2023-03-04T10:30:47;16.40;26.80
7700;DHT22;3892;47.794;19.126;2023-03-04T10:33:17;16.60;27.10
7700;DHT22;3892;47.794;19.126;2023-03-04T10:35:48;16.60;29.10
7700;DHT22;3892;47.794;19.126;2023-03-04T10:38:18;16.70;31.70
7700;DHT22;3892;47.794;19.126;2023-03-04T10:40:47;16.90;31.20
7700;DHT22;3892;47.794;19.126;2023-03-04T10:43:16;16.80;26.80
7700;DHT22;3892;47.794;19.126;2023-03-04T10:45:44;16.80;26.50
7700;DHT22;3892;47.794;19.126;2023-03-04T10:48:22;16.70;26.50
7700;DHT22;3892;47.794;19.126;2023-03-04T10:50:50;16.90;26.70
7700;DHT22;3892;47.794;19.126;2023-03-04T10:53:32;17.00;26.70
7700;DHT22;3892;47.794;19.126;2023-03-04T10:56:01;17.10;26.50
7700;DHT22;3892;47.794;19.126;2023-03-04T10:58:29;17.00;25.70
7700;DHT22;3892;47.794;19.126;2023-03-04T11:01:02;16.80;25.10
7700;DHT22;3892;47.794;19.126;2023-03-04T11:03:32;17.20;25.70
7700;DHT22;3892;47.794;19.126;2023-03-04T11:06:11;17.10;25.40
7700;DHT22;3892;47.794;19.126;2023-03-04T11:08:41;17.30;25.90
7700;DHT22;3892;47.794;19.126;2023-03-04T11:11:30;17.30;25.90
7700;DHT22;3892;47.794;19.126;2023-03-04T11:14:01;17.40;25.80
7700;DHT22;3892;47.794;19.126;2023-03-04T11:16:31;17.50;25.60
7700;DHT22;3892;47.794;19.126;2023-03-04T11:19:02;17.50;25.40
7700;DHT22;3892;47.794;19.126;2023-03-04T11:21:35;17.60;25.50
7700;DHT22;3892;47.794;19.126;2023-03-04T11:24:09;17.80;25.50
7700;DHT22;3892;47.794;19.126;2023-03-04T11:26:41;17.90;25.80
7700;DHT22;3892;47.794;19.126;2023-03-04T11:29:14;17.90;25.90
7700;DHT22;3892;47.794;19.126;2023-03-04T11:31:45;18.20;25.90
7700;DHT22;3892;47.794;19.126;2023-03-04T11:34:19;17.90;25.20
7700;DHT22;3892;47.794;19.126;2023-03-04T11:36:54;17.80;25.50
7700;DHT22;3892;47.794;19.126;2023-03-04T11:39:28;18.00;25.80
7700;DHT22;3892;47.794;19.126;2023-03-04T11:42:04;18.00;25.80
7700;DHT22;3892;47.794;19.126;2023-03-04T11:44:36;17.80;25.50
7700;DHT22;3892;47.794;19.126;2023-03-04T11:47:21;18.00;25.70
7700;DHT22;3892;47.794;19.126;2023-03-04T11:55:55;18.80;25.40
7700;DHT22;3892;47.794;19.126;2023-03-04T11:58:48;19.10;24.80
7700;DHT22;3892;47.794;19.126;2023-03-04T12:01:23;19.20;24.40
7700;DHT22;3892;47.794;19.126;2023-03-04T12:04:06;19.70;24.60
7700;DHT22;3892;47.794;19.126;2023-03-04T12:06:50;20.10;24.30
7700;DHT22;3892;47.794;19.126;2023-03-04T12:09:31;20.50;24.00
7700;DHT22;3892;47.794;19.126;2023-03-04T12:12:16;21.10;24.20
7700;DHT22;3892;47.794;19.126;2023-03-04T12:14:50;21.70;23.80
7700;DHT22;3892;47.794;19.126;2023-03-04T12:17:42;22.00;22.50
7700;DHT22;3892;47.794;19.126;2023-03-04T12:20:29;22.60;22.50
7700;DHT22;3892;47.794;19.126;2023-03-04T12:23:08;22.70;21.90
7700;DHT22;3892;47.794;19.126;2023-03-04T12:25:40;23.00;22.30
7700;DHT22;3892;47.794;19.126;2023-03-04T12:28:38;23.50;22.80
7700;DHT22;3892;47.794;19.126;2023-03-04T12:31:26;23.30;21.60
7700;DHT22;3892;47.794;19.126;2023-03-04T12:34:08;23.50;21.60
7700;DHT22;3892;47.794;19.126;2023-03-04T12:36:44;23.60;21.50
7700;DHT22;3892;47.794;19.126;2023-03-04T12:39:24;23.10;20.80
7700;DHT22;3892;47.794;19.126;2023-03-04T12:42:01;23.40;21.50
7700;DHT22;3892;47.794;19.126;2023-03-04T12:44:37;23.40;21.90
7700;DHT22;3892;47.794;19.126;2023-03-04T12:47:21;23.30;22.00
7700;DHT22;3892;47.794;19.126;2023-03-04T12:50:07;23.30;22.20
7700;DHT22;3892;47.794;19.126;2023-03-04T12:52:48;22.10;20.80
7700;DHT22;3892;47.794;19.126;2023-03-04T12:55:25;22.10;21.20
7700;DHT22;3892;47.794;19.126;2023-03-04T12:57:56;22.20;21.70
7700;DHT22;3892;47.794;19.126;2023-03-04T13:00:30;21.80;21.50
7700;DHT22;3892;47.794;19.126;2023-03-04T13:03:07;21.70;21.80
7700;DHT22;3892;47.794;19.126;2023-03-04T13:05:59;21.20;21.60
7700;DHT22;3892;47.794;19.126;2023-03-04T13:08:38;20.90;21.20
7700;DHT22;3892;47.794;19.126;2023-03-04T13:11:39;20.80;21.60
7700;DHT22;3892;47.794;19.126;2023-03-04T13:14:23;20.50;21.30
7700;DHT22;3892;47.794;19.126;2023-03-04T13:16:52;20.40;20.60
7700;DHT22;3892;47.794;19.126;2023-03-04T13:19:42;20.30;20.90
7700;DHT22;3892;47.794;19.126;2023-03-04T13:22:33;20.30;21.30
7700;DHT22;3892;47.794;19.126;2023-03-04T13:25:35;20.10;21.10
7700;DHT22;3892;47.794;19.126;2023-03-04T13:28:27;20.20;21.10
7700;DHT22;3892;47.794;19.126;2023-03-04T13:31:17;19.90;20.60
7700;DHT22;3892;47.794;19.126;2023-03-04T13:33:51;19.80;21.00
7700;DHT22;3892;47.794;19.126;2023-03-04T13:39:31;19.70;20.90
7700;DHT22;3892;47.794;19.126;2023-03-04T13:41:59;19.20;20.20
7700;DHT22;3892;47.794;19.126;2023-03-04T13:47:19;18.80;20.80
7700;DHT22;3892;47.794;19.126;2023-03-04T13:49:47;19.10;21.90
7700;DHT22;3892;47.794;19.126;2023-03-04T13:52:37;19.20;22.10
7700;DHT22;3892;47.794;19.126;2023-03-04T13:55:31;19.20;21.90
7700;DHT22;3892;47.794;19.126;2023-03-04T13:57:59;19.20;21.90
7700;DHT22;3892;47.794;19.126;2023-03-04T14:00:27;19.20;21.90
7700;DHT22;3892;47.794;19.126;2023-03-04T14:02:54;18.90;21.40
7700;DHT22;3892;47.794;19.126;2023-03-04T14:05:21;18.90;21.70
7700;DHT22;3892;47.794;19.126;2023-03-04T14:07:49;18.90;21.70
7700;DHT22;3892;47.794;19.126;2023-03-04T14:10:22;18.90;21.60
7700;DHT22;3892;47.794;19.126;2023-03-04T14:12:52;18.60;21.50
7700;DHT22;3892;47.794;19.126;2023-03-04T14:15:22;18.80;21.70
7700;DHT22;3892;47.794;19.126;2023-03-04T14:17:51;18.60;21.60
7700;DHT22;3892;47.794;19.126;2023-03-04T14:20:26;18.50;21.50
7700;DHT22;3892;47.794;19.126;2023-03-04T14:22:56;18.50;22.00
7700;DHT22;3892;47.794;19.126;2023-03-04T14:25:26;18.50;21.90
7700;DHT22;3892;47.794;19.126;2023-03-04T14:28:02;18.30;21.70
7700;DHT22;3892;47.794;19.126;2023-03-04T14:30:30;18.30;22.00
7700;DHT22;3892;47.794;19.126;2023-03-04T14:32:59;18.20;21.60
7700;DHT22;3892;47.794;19.126;2023-03-04T14:35:28;18.10;21.70
7700;DHT22;3892;47.794;19.126;2023-03-04T14:38:00;18.10;21.90
7700;DHT22;3892;47.794;19.126;2023-03-04T14:40:32;18.00;21.90
7700;DHT22;3892;47.794;19.126;2023-03-04T14:43:03;18.10;22.50
7700;DHT22;3892;47.794;19.126;2023-03-04T14:45:31;18.00;22.30
7700;DHT22;3892;47.794;19.126;2023-03-04T14:48:03;17.80;22.00
7700;DHT22;3892;47.794;19.126;2023-03-04T14:50:32;17.60;22.00
7700;DHT22;3892;47.794;19.126;2023-03-04T14:53:13;17.80;22.40
7700;DHT22;3892;47.794;19.126;2023-03-04T14:55:54;17.90;22.80
7700;DHT22;3892;47.794;19.126;2023-03-04T14:58:24;17.80;22.10
7700;DHT22;3892;47.794;19.126;2023-03-04T15:01:07;17.70;21.90
7700;DHT22;3892;47.794;19.126;2023-03-04T15:03:39;17.60;21.70
7700;DHT22;3892;47.794;19.126;2023-03-04T15:06:17;17.10;21.40
7700;DHT22;3892;47.794;19.126;2023-03-04T15:08:48;17.50;21.60
7700;DHT22;3892;47.794;19.126;2023-03-04T15:11:22;17.40;21.20
7700;DHT22;3892;47.794;19.126;2023-03-04T15:13:51;17.40;21.10
7700;DHT22;3892;47.794;19.126;2023-03-04T15:16:22;17.30;21.00
7700;DHT22;3892;47.794;19.126;2023-03-04T15:18:57;17.20;21.10
7700;DHT22;3892;47.794;19.126;2023-03-04T15:21:31;17.10;21.20
7700;DHT22;3892;47.794;19.126;2023-03-04T15:24:00;17.10;21.20
7700;DHT22;3892;47.794;19.126;2023-03-04T15:26:30;17.10;21.20
7700;DHT22;3892;47.794;19.126;2023-03-04T15:28:58;17.00;21.30
7700;DHT22;3892;47.794;19.126;2023-03-04T15:31:25;17.10;21.60
7700;DHT22;3892;47.794;19.126;2023-03-04T15:33:52;17.00;21.70
7700;DHT22;3892;47.794;19.126;2023-03-04T15:36:21;17.00;21.80
7700;DHT22;3892;47.794;19.126;2023-03-04T15:38:50;17.10;22.10
7700;DHT22;3892;47.794;19.126;2023-03-04T15:41:23;16.90;22.10
7700;DHT22;3892;47.794;19.126;2023-03-04T15:43:52;17.00;22.20
7700;DHT22;3892;47.794;19.126;2023-03-04T15:46:20;17.00;22.30
7700;DHT22;3892;47.794;19.126;2023-03-04T15:48:48;16.70;22.10
7700;DHT22;3892;47.794;19.126;2023-03-04T15:51:19;16.70;22.40
7700;DHT22;3892;47.794;19.126;2023-03-04T15:53:49;16.30;21.80
7700;DHT22;3892;47.794;19.126;2023-03-04T15:56:23;16.50;22.20
7700;DHT22;3892;47.794;19.126;2023-03-04T15:58:53;16.50;22.50
7700;DHT22;3892;47.794;19.126;2023-03-04T16:01:22;16.50;22.50
7700;DHT22;3892;47.794;19.126;2023-03-04T16:03:51;16.40;22.70
7700;DHT22;3892;47.794;19.126;2023-03-04T16:06:20;16.50;22.90
7700;DHT22;3892;47.794;19.126;2023-03-04T16:08:51;16.30;22.80
7700;DHT22;3892;47.794;19.126;2023-03-04T16:11:22;16.30;22.80
7700;DHT22;3892;47.794;19.126;2023-03-04T16:13:49;16.20;23.00
7700;DHT22;3892;47.794;19.126;2023-03-04T16:16:17;15.90;23.00
7700;DHT22;3892;47.794;19.126;2023-03-04T16:18:44;15.90;23.10
7700;DHT22;3892;47.794;19.126;2023-03-04T16:21:15;15.80;23.10
7700;DHT22;3892;47.794;19.126;2023-03-04T16:23:45;15.60;23.10
7700;DHT22;3892;47.794;19.126;2023-03-04T16:26:22;15.50;23.20
7700;DHT22;3892;47.794;19.126;2023-03-04T16:28:50;15.30;23.10